Terminal Aerodrome Forecast
Issued by NWS

Home | Current Version | Previous Version | Text Only | Print | Product List | Glossary Off
Versions: 1 2 3 4 5 6 7 8 9 10 11 12 13 14 15 16 17

000
FTUS43 KGRB 221131
TAFAUW
TAF
KAUW 221131Z 2212/2312 29004KT P6SM SCT025
      TEMPO 2212/2214 BKN025
     FM221400 24005KT P6SM SCT250
     FM222200 22006KT P6SM SCT060 OVC090
     FM230100 21005KT 4SM -SN BKN040 OVC070
      TEMPO 2302/2306 1SM -FZRASN BKN022
     FM230700 20005KT P6SM BKN045=

USA.gov is the U.S. government's official web portal to all federal, state and local government web resources and services.